createdAt,value
2023-03-17T00:01:54.489Z,0.30
2023-03-17T00:04:24.225Z,0.30
2023-03-17T00:06:51.835Z,0.30
2023-03-17T00:09:19.917Z,0.30
2023-03-17T00:11:47.892Z,0.30
2023-03-17T00:14:15.181Z,0.30
2023-03-17T00:16:44.175Z,0.40
2023-03-17T00:19:17.238Z,0.30
2023-03-17T00:21:46.062Z,0.38
2023-03-17T00:24:15.069Z,0.40
2023-03-17T00:26:42.534Z,0.30
2023-03-17T00:29:09.899Z,0.30
2023-03-17T00:31:38.070Z,0.30
2023-03-17T00:34:05.715Z,0.30
2023-03-17T00:36:34.352Z,0.30
2023-03-17T00:39:01.511Z,0.30
2023-03-17T00:41:32.368Z,0.30
2023-03-17T00:43:59.645Z,0.30
2023-03-17T00:46:30.084Z,0.30
2023-03-17T00:48:57.072Z,0.30
2023-03-17T00:51:27.090Z,0.30
2023-03-17T00:53:54.024Z,0.30
2023-03-17T00:56:21.883Z,0.30
2023-03-17T00:58:49.381Z,0.30
2023-03-17T01:01:16.557Z,0.30
2023-03-17T01:03:43.357Z,0.30
2023-03-17T01:06:12.845Z,0.30
2023-03-17T01:08:41.606Z,0.30
2023-03-17T01:11:20.263Z,0.30
2023-03-17T01:13:47.034Z,0.30
2023-03-17T01:16:15.457Z,0.30
2023-03-17T01:18:42.356Z,0.30
2023-03-17T01:21:09.451Z,0.30
2023-03-17T01:23:37.401Z,0.30
2023-03-17T01:26:04.477Z,0.30
2023-03-17T01:28:31.356Z,0.30
2023-03-17T01:30:58.050Z,0.30
2023-03-17T01:33:25.612Z,0.30
2023-03-17T01:35:52.763Z,0.30
2023-03-17T01:38:19.533Z,0.30
2023-03-17T01:40:49.672Z,0.30
2023-03-17T01:43:29.361Z,0.30
2023-03-17T01:46:22.512Z,0.30
2023-03-17T01:49:04.433Z,0.30
2023-03-17T01:51:47.807Z,0.28
2023-03-17T01:54:21.917Z,0.30
2023-03-17T01:56:52.330Z,0.30
2023-03-17T01:59:24.999Z,0.30
2023-03-17T02:01:56.635Z,0.40
2023-03-17T02:04:25.878Z,0.40
2023-03-17T02:06:58.286Z,0.40
2023-03-17T02:09:27.624Z,0.40
2023-03-17T02:11:55.669Z,0.40
2023-03-17T02:14:23.732Z,0.40
2023-03-17T02:16:50.499Z,0.30
2023-03-17T02:19:17.297Z,0.40
2023-03-17T02:21:53.416Z,0.40
2023-03-17T02:24:37.643Z,0.30
2023-03-17T02:27:13.553Z,0.30
2023-03-17T02:29:41.485Z,0.30
2023-03-17T02:32:10.041Z,0.30
2023-03-17T02:34:37.391Z,0.30
2023-03-17T02:37:04.646Z,0.30
2023-03-17T02:39:32.115Z,0.35
2023-03-17T02:41:58.918Z,0.40
2023-03-17T02:44:25.971Z,0.40
2023-03-17T02:46:52.979Z,0.40
2023-03-17T02:49:20.786Z,0.40
2023-03-17T02:51:48.119Z,0.40
2023-03-17T02:54:15.067Z,0.40
2023-03-17T02:56:42.081Z,0.40
2023-03-17T02:59:09.333Z,0.40
2023-03-17T03:01:36.347Z,0.40
2023-03-17T03:04:04.109Z,0.40
2023-03-17T03:06:31.750Z,0.40
2023-03-17T03:08:58.621Z,0.40
2023-03-17T03:11:26.543Z,0.40
2023-03-17T03:13:53.303Z,0.40
2023-03-17T03:16:20.081Z,0.30
2023-03-17T03:18:47.231Z,0.40
2023-03-17T03:21:14.339Z,0.35
2023-03-17T03:23:41.251Z,0.40
2023-03-17T03:26:07.898Z,0.30
2023-03-17T03:28:34.909Z,0.30
2023-03-17T03:31:02.024Z,0.40
2023-03-17T03:33:28.756Z,0.40
2023-03-17T03:35:55.501Z,0.40
2023-03-17T03:38:22.252Z,0.30
2023-03-17T03:40:48.941Z,0.40
2023-03-17T03:43:23.091Z,0.40
2023-03-17T03:45:51.417Z,0.40
2023-03-17T03:48:18.711Z,0.30
2023-03-17T03:50:45.707Z,0.40
2023-03-17T03:53:12.997Z,0.30
2023-03-17T03:55:39.923Z,0.30
2023-03-17T03:58:06.847Z,0.30
2023-03-17T04:00:33.824Z,0.37
2023-03-17T04:03:01.332Z,0.30
2023-03-17T04:05:31.279Z,0.32
2023-03-17T04:07:57.944Z,0.40
2023-03-17T04:10:24.662Z,0.40
2023-03-17T04:12:51.376Z,0.40
2023-03-17T04:15:19.769Z,0.40
2023-03-17T04:17:47.054Z,0.40
2023-03-17T04:20:15.309Z,0.40
2023-03-17T04:22:42.894Z,0.30
2023-03-17T04:25:11.760Z,0.30
2023-03-17T04:27:38.519Z,0.30
2023-03-17T04:30:06.140Z,0.30
2023-03-17T04:32:32.903Z,0.30
2023-03-17T04:34:59.643Z,0.30
2023-03-17T04:37:26.498Z,0.30
2023-03-17T04:39:53.488Z,0.30
2023-03-17T04:42:20.156Z,0.30
2023-03-17T04:44:47.092Z,0.30
2023-03-17T04:47:13.773Z,0.40
2023-03-17T04:49:40.542Z,0.40
2023-03-17T04:52:07.317Z,0.40
2023-03-17T04:54:34.094Z,0.40
2023-03-17T04:57:00.994Z,0.40
2023-03-17T04:59:27.738Z,0.40
2023-03-17T05:01:54.544Z,0.30
2023-03-17T05:04:31.127Z,0.25
2023-03-17T05:06:58.919Z,0.30
2023-03-17T05:09:27.099Z,0.30
2023-03-17T05:11:54.113Z,0.30
2023-03-17T05:14:21.339Z,0.30
2023-03-17T05:16:49.027Z,0.30
2023-03-17T05:19:16.689Z,0.40
2023-03-17T05:21:43.810Z,0.40
2023-03-17T05:24:10.763Z,0.40
2023-03-17T05:26:37.635Z,0.40
2023-03-17T05:29:04.696Z,0.40
2023-03-17T05:31:32.042Z,0.30
2023-03-17T05:33:59.058Z,0.30
2023-03-17T05:36:25.817Z,0.30
2023-03-17T05:38:52.704Z,0.30
2023-03-17T05:41:19.762Z,0.32
2023-03-17T05:43:46.930Z,0.32
2023-03-17T05:46:13.894Z,0.40
2023-03-17T05:48:41.047Z,0.40
2023-03-17T05:51:08.338Z,0.40
2023-03-17T05:53:36.281Z,0.38
2023-03-17T05:56:03.804Z,0.30
2023-03-17T05:58:30.743Z,0.30
2023-03-17T06:00:57.572Z,0.30
2023-03-17T06:03:24.347Z,0.30
2023-03-17T06:05:51.738Z,0.40
2023-03-17T06:08:19.180Z,0.40
2023-03-17T06:10:47.346Z,0.40
2023-03-17T06:13:14.269Z,0.40
2023-03-17T06:15:43.045Z,0.32
2023-03-17T06:18:09.862Z,0.30
2023-03-17T06:20:36.745Z,0.30
2023-03-17T06:23:05.625Z,0.30
2023-03-17T06:25:34.618Z,0.30
2023-03-17T06:28:03.893Z,0.35
2023-03-17T06:30:37.564Z,0.30
2023-03-17T06:33:06.825Z,0.40
2023-03-17T06:35:34.342Z,0.40
2023-03-17T06:38:02.343Z,0.40
2023-03-17T06:40:29.521Z,0.40
2023-03-17T06:42:56.605Z,0.40
2023-03-17T06:45:23.397Z,0.40
2023-03-17T06:47:53.327Z,0.40
2023-03-17T06:50:20.246Z,0.30
2023-03-17T06:52:47.114Z,0.30
2023-03-17T06:55:13.913Z,0.30
2023-03-17T06:57:41.049Z,0.30
2023-03-17T07:00:08.703Z,0.30
2023-03-17T07:02:35.597Z,0.20
2023-03-17T07:05:03.744Z,0.30
2023-03-17T07:07:30.680Z,0.30
2023-03-17T07:09:58.316Z,0.30
2023-03-17T07:12:25.042Z,0.30
2023-03-17T07:14:52.138Z,0.30
2023-03-17T07:17:19.676Z,0.30
2023-03-17T07:19:47.031Z,0.30
2023-03-17T07:22:13.881Z,0.20
2023-03-17T07:24:43.121Z,0.20
2023-03-17T07:27:10.002Z,0.25
2023-03-17T07:29:37.003Z,0.30
2023-03-17T07:32:06.579Z,0.20
2023-03-17T07:34:33.908Z,0.20
2023-03-17T07:37:01.074Z,0.20
2023-03-17T07:39:27.959Z,0.30
2023-03-17T07:41:57.867Z,0.20
2023-03-17T07:44:25.193Z,0.20
2023-03-17T07:46:52.374Z,0.20
2023-03-17T07:49:34.059Z,0.30
2023-03-17T07:52:08.624Z,0.20
2023-03-17T07:54:36.624Z,0.30
2023-03-17T07:57:04.349Z,0.20
2023-03-17T07:59:31.605Z,0.20
2023-03-17T08:02:00.211Z,0.20
2023-03-17T08:04:27.692Z,0.20
2023-03-17T08:06:54.587Z,0.30
2023-03-17T08:09:22.330Z,0.20
2023-03-17T08:11:49.451Z,0.20
2023-03-17T08:14:16.686Z,0.20
2023-03-17T08:16:43.505Z,0.20
2023-03-17T08:19:11.228Z,0.20
2023-03-17T08:21:37.994Z,0.20
2023-03-17T08:24:05.309Z,0.20
2023-03-17T08:26:32.547Z,0.20
2023-03-17T08:28:59.456Z,0.10
2023-03-17T08:31:26.323Z,0.20
2023-03-17T08:33:54.581Z,0.10
2023-03-17T08:36:21.746Z,0.10
2023-03-17T08:38:48.549Z,0.13
2023-03-17T08:41:18.334Z,0.20
2023-03-17T08:43:46.324Z,0.10
2023-03-17T08:46:28.038Z,0.10
2023-03-17T08:48:56.718Z,0.10
2023-03-17T08:51:26.586Z,0.10
2023-03-17T08:53:54.941Z,0.13
2023-03-17T08:56:22.510Z,0.20
2023-03-17T08:58:50.805Z,0.10
2023-03-17T09:01:18.639Z,0.10
2023-03-17T09:03:45.621Z,0.10
2023-03-17T09:06:13.616Z,0.10
2023-03-17T09:08:44.947Z,0.10
2023-03-17T09:11:14.911Z,0.10
2023-03-17T09:13:42.097Z,0.10
2023-03-17T09:16:10.008Z,0.10
2023-03-17T09:18:37.701Z,0.10
2023-03-17T09:21:05.400Z,0.10
2023-03-17T09:23:32.927Z,0.10
2023-03-17T09:26:00.818Z,0.10
2023-03-17T09:28:29.047Z,0.10
2023-03-17T09:31:05.253Z,0.10
2023-03-17T09:33:32.056Z,0.10
2023-03-17T09:35:58.843Z,0.10
2023-03-17T09:38:27.755Z,0.10
2023-03-17T09:41:00.341Z,0.10
2023-03-17T09:43:52.342Z,0.10
2023-03-17T09:47:00.882Z,0.10
2023-03-17T09:50:01.205Z,0.10
2023-03-17T09:52:34.363Z,0.10
2023-03-17T09:55:04.152Z,0.10
2023-03-17T09:57:35.748Z,0.03
2023-03-17T10:00:14.693Z,0.10
2023-03-17T10:02:43.197Z,0.10
2023-03-17T10:05:13.060Z,0.00
2023-03-17T10:07:49.543Z,0.00
2023-03-17T10:10:39.264Z,0.00
2023-03-17T10:13:14.047Z,0.00
2023-03-17T10:15:57.785Z,0.00
2023-03-17T10:18:33.256Z,0.00
2023-03-17T10:21:06.001Z,0.00
2023-03-17T10:23:35.014Z,0.00
2023-03-17T10:26:26.308Z,0.00
2023-03-17T10:28:55.890Z,0.00
2023-03-17T10:31:33.240Z,0.00
2023-03-17T10:34:20.133Z,0.00
2023-03-17T10:36:49.425Z,0.00
2023-03-17T10:39:22.094Z,0.00
2023-03-17T10:41:57.050Z,0.00
2023-03-17T10:44:58.419Z,0.00
2023-03-17T10:47:31.713Z,0.00
2023-03-17T10:50:15.437Z,0.00
2023-03-17T10:52:42.840Z,0.00
2023-03-17T10:55:15.436Z,0.00
2023-03-17T10:58:02.125Z,0.00
2023-03-17T11:00:35.224Z,0.00
2023-03-17T11:03:24.622Z,0.00
2023-03-17T11:06:14.670Z,0.00
2023-03-17T11:08:45.702Z,0.00
2023-03-17T11:11:34.751Z,0.00
2023-03-17T11:14:04.061Z,0.00
2023-03-17T11:16:34.970Z,0.00
2023-03-17T11:19:02.467Z,0.00
2023-03-17T11:21:46.759Z,0.00
2023-03-17T11:24:32.122Z,0.00
2023-03-17T11:27:17.937Z,0.00
2023-03-17T11:30:30.451Z,0.00
2023-03-17T11:33:03.207Z,0.00
2023-03-17T11:36:04.027Z,0.00
2023-03-17T11:38:36.249Z,0.00
2023-03-17T11:41:25.506Z,0.00
2023-03-17T11:44:05.682Z,0.00
2023-03-17T11:47:07.387Z,0.00
2023-03-17T11:49:38.985Z,0.00
2023-03-17T11:52:38.746Z,0.00
2023-03-17T11:55:19.188Z,0.00
2023-03-17T11:57:56.701Z,0.00
2023-03-17T12:01:00.869Z,0.00
2023-03-17T12:03:50.609Z,0.00
2023-03-17T12:06:33.591Z,0.00
2023-03-17T12:09:13.203Z,0.00
2023-03-17T12:11:41.644Z,0.00
2023-03-17T12:14:30.061Z,0.00
2023-03-17T12:17:18.605Z,0.00
2023-03-17T12:20:18.354Z,0.00
2023-03-17T12:23:16.946Z,0.00
2023-03-17T12:26:05.090Z,0.00
2023-03-17T12:28:42.546Z,0.00
2023-03-17T12:31:24.106Z,0.00
2023-03-17T12:34:15.490Z,0.00
2023-03-17T12:36:42.654Z,0.00
2023-03-17T12:39:16.360Z,0.00
2023-03-17T12:42:11.000Z,0.00
2023-03-17T12:45:11.963Z,0.00
2023-03-17T12:48:03.014Z,0.00
2023-03-17T12:50:53.771Z,0.00
2023-03-17T12:53:28.463Z,0.00
2023-03-17T12:56:00.171Z,0.00
2023-03-17T12:58:46.486Z,0.00
2023-03-17T13:01:33.218Z,0.00
2023-03-17T13:04:08.644Z,0.00
2023-03-17T13:06:42.515Z,0.00
2023-03-17T13:09:31.818Z,0.00
2023-03-17T13:12:01.194Z,0.00
2023-03-17T13:14:41.969Z,0.00
2023-03-17T13:17:17.860Z,0.00
2023-03-17T13:20:11.606Z,0.00
2023-03-17T13:22:58.933Z,0.00
2023-03-17T13:25:34.912Z,0.00
2023-03-17T13:28:13.690Z,0.00
2023-03-17T13:30:40.607Z,0.00
2023-03-17T13:33:10.298Z,0.00
2023-03-17T13:35:46.124Z,0.00
2023-03-17T13:39:17.665Z,0.00
2023-03-17T13:42:15.800Z,0.00
2023-03-17T13:45:18.734Z,0.00
2023-03-17T13:47:47.178Z,0.00
2023-03-17T13:50:31.494Z,0.00
2023-03-17T13:53:03.615Z,0.00
2023-03-17T13:55:42.086Z,0.00
2023-03-17T13:58:11.385Z,0.00
2023-03-17T14:00:47.557Z,0.00
2023-03-17T14:03:29.153Z,0.00
2023-03-17T14:05:57.451Z,0.00
2023-03-17T14:08:27.080Z,0.00
2023-03-17T14:10:56.581Z,0.00
2023-03-17T14:13:27.923Z,0.00
2023-03-17T14:16:03.934Z,0.00
2023-03-17T14:18:35.236Z,0.00
2023-03-17T14:21:09.960Z,0.00
2023-03-17T14:23:38.414Z,0.00
2023-03-17T14:26:07.168Z,0.00
2023-03-17T14:28:35.571Z,0.00
2023-03-17T14:31:05.515Z,0.00
2023-03-17T14:33:38.171Z,0.00
2023-03-17T14:36:09.442Z,0.00
2023-03-17T14:38:38.529Z,0.00
2023-03-17T14:41:19.500Z,0.00
2023-03-17T14:43:46.343Z,0.00
2023-03-17T14:46:22.214Z,0.00
2023-03-17T14:48:52.452Z,0.00
2023-03-17T14:51:39.050Z,0.00
2023-03-17T14:54:16.809Z,0.00
2023-03-17T14:56:51.948Z,0.00
2023-03-17T14:59:25.294Z,0.00
2023-03-17T15:01:57.732Z,0.00
2023-03-17T15:04:32.978Z,0.00
2023-03-17T15:07:06.618Z,0.00
2023-03-17T15:09:38.460Z,0.00
2023-03-17T15:12:17.885Z,0.00
2023-03-17T15:14:51.516Z,0.00
2023-03-17T15:17:27.066Z,0.00
2023-03-17T15:19:58.057Z,0.00
2023-03-17T15:22:29.512Z,0.00
2023-03-17T15:25:02.904Z,0.00
2023-03-17T15:27:31.475Z,0.00
2023-03-17T15:29:58.445Z,0.00
2023-03-17T15:32:26.881Z,0.00
2023-03-17T15:34:57.063Z,0.00
2023-03-17T15:37:25.447Z,0.00
2023-03-17T15:39:53.756Z,0.00
2023-03-17T15:42:23.518Z,0.00
2023-03-17T15:44:51.602Z,0.00
2023-03-17T15:47:21.142Z,0.00
2023-03-17T15:49:49.759Z,0.00
2023-03-17T15:52:21.729Z,0.00
2023-03-17T15:54:49.362Z,0.00
2023-03-17T15:57:16.567Z,0.00
2023-03-17T15:59:44.096Z,0.00
2023-03-17T16:02:22.808Z,0.00
2023-03-17T16:04:49.736Z,0.00
2023-03-17T16:07:17.285Z,0.00
2023-03-17T16:09:45.476Z,0.00
2023-03-17T16:12:12.807Z,0.00
2023-03-17T16:14:39.802Z,0.00
2023-03-17T16:17:13.710Z,0.10
2023-03-17T16:19:40.358Z,0.10
2023-03-17T16:22:34.809Z,0.10
2023-03-17T16:25:01.677Z,0.10
2023-03-17T16:27:28.516Z,0.10
2023-03-17T16:29:55.383Z,0.10
2023-03-17T16:32:22.105Z,0.08
2023-03-17T16:34:48.819Z,0.10
2023-03-17T16:37:16.221Z,0.10
2023-03-17T16:39:43.224Z,0.10
2023-03-17T16:42:22.312Z,0.10
2023-03-17T16:44:49.758Z,0.00
2023-03-17T16:47:16.728Z,0.10
2023-03-17T16:49:43.506Z,0.10
2023-03-17T16:52:12.071Z,0.10
2023-03-17T16:54:38.950Z,0.10
2023-03-17T16:57:07.783Z,0.10
2023-03-17T16:59:34.836Z,0.10
2023-03-17T17:02:02.113Z,0.10
2023-03-17T17:04:28.967Z,0.10
2023-03-17T17:06:56.698Z,0.10
2023-03-17T17:09:23.466Z,0.10
2023-03-17T17:11:50.220Z,0.10
2023-03-17T17:14:17.072Z,0.10
2023-03-17T17:16:44.045Z,0.10
2023-03-17T17:19:16.037Z,0.10
2023-03-17T17:21:43.622Z,0.10
2023-03-17T17:24:12.267Z,0.10
2023-03-17T17:26:39.371Z,0.10
2023-03-17T17:29:06.433Z,0.10
2023-03-17T17:31:33.277Z,0.10
2023-03-17T17:34:00.125Z,0.10
2023-03-17T17:36:27.663Z,0.10
2023-03-17T17:38:55.532Z,0.10
2023-03-17T17:41:24.309Z,0.10
2023-03-17T17:43:51.656Z,0.10
2023-03-17T17:46:20.956Z,0.10
2023-03-17T17:48:48.342Z,0.10
2023-03-17T17:51:15.605Z,0.10
2023-03-17T17:53:42.360Z,0.10
2023-03-17T17:56:14.285Z,0.10
2023-03-17T17:58:41.397Z,0.10
2023-03-17T18:01:08.317Z,0.10
2023-03-17T18:03:35.130Z,0.10
2023-03-17T18:06:02.056Z,0.17
2023-03-17T18:08:29.073Z,0.20
2023-03-17T18:10:57.272Z,0.10
2023-03-17T18:13:24.653Z,0.10
2023-03-17T18:15:51.910Z,0.10
2023-03-17T18:18:18.795Z,0.10
2023-03-17T18:20:45.560Z,0.10
2023-03-17T18:23:12.380Z,0.10
2023-03-17T18:25:39.101Z,0.10
2023-03-17T18:28:06.306Z,0.10
2023-03-17T18:30:35.143Z,0.10
2023-03-17T18:33:14.800Z,0.10
2023-03-17T18:35:41.953Z,0.10
2023-03-17T18:38:08.838Z,0.10
2023-03-17T18:40:36.011Z,0.10
2023-03-17T18:43:03.027Z,0.10
2023-03-17T18:45:29.798Z,0.10
2023-03-17T18:47:56.448Z,0.10
2023-03-17T18:50:23.342Z,0.10
2023-03-17T18:52:50.596Z,0.10
2023-03-17T18:55:17.889Z,0.10
2023-03-17T18:57:45.681Z,0.10
2023-03-17T19:00:15.288Z,0.10
2023-03-17T19:02:42.387Z,0.17
2023-03-17T19:05:09.676Z,0.10
2023-03-17T19:07:37.961Z,0.15
2023-03-17T19:10:07.384Z,0.10
2023-03-17T19:12:34.094Z,0.10
2023-03-17T19:15:01.725Z,0.10
2023-03-17T19:17:28.888Z,0.10
2023-03-17T19:19:55.933Z,0.10
2023-03-17T19:22:23.289Z,0.10
2023-03-17T19:24:50.501Z,0.10
2023-03-17T19:27:17.605Z,0.10
2023-03-17T19:29:44.478Z,0.17
2023-03-17T19:32:11.404Z,0.20
2023-03-17T19:34:38.217Z,0.10
2023-03-17T19:37:05.048Z,0.10
2023-03-17T19:39:32.095Z,0.10
2023-03-17T19:41:59.184Z,0.10
2023-03-17T19:44:26.353Z,0.10
2023-03-17T19:46:53.100Z,0.10
2023-03-17T19:49:21.149Z,0.10
2023-03-17T19:51:49.113Z,0.13
2023-03-17T19:54:15.958Z,0.10
2023-03-17T19:56:42.851Z,0.17
2023-03-17T19:59:09.573Z,0.10
2023-03-17T20:01:37.907Z,0.10
2023-03-17T20:04:06.798Z,0.10
2023-03-17T20:06:34.681Z,0.10
2023-03-17T20:09:04.052Z,0.10
2023-03-17T20:11:33.890Z,0.10
2023-03-17T20:14:02.287Z,0.17
2023-03-17T20:16:32.680Z,0.10
2023-03-17T20:19:01.462Z,0.10
2023-03-17T20:21:28.352Z,0.10
2023-03-17T20:23:56.324Z,0.10
2023-03-17T20:26:23.358Z,0.10
2023-03-17T20:28:50.238Z,0.10
2023-03-17T20:31:17.983Z,0.10
2023-03-17T20:33:44.830Z,0.20
2023-03-17T20:36:12.944Z,0.10
2023-03-17T20:38:40.555Z,0.10
2023-03-17T20:41:10.668Z,0.13
2023-03-17T20:43:38.162Z,0.20
2023-03-17T20:46:05.983Z,0.10
2023-03-17T20:48:33.060Z,0.10
2023-03-17T20:51:00.604Z,0.20
2023-03-17T20:53:28.221Z,0.10
2023-03-17T20:55:55.524Z,0.10
2023-03-17T20:58:22.748Z,0.10
2023-03-17T21:00:50.395Z,0.20
2023-03-17T21:03:19.959Z,0.10
2023-03-17T21:05:47.614Z,0.10
2023-03-17T21:08:14.620Z,0.10
2023-03-17T21:10:41.609Z,0.20
2023-03-17T21:13:08.899Z,0.10
2023-03-17T21:15:36.066Z,0.10
2023-03-17T21:18:03.146Z,0.10
2023-03-17T21:20:30.334Z,0.10
2023-03-17T21:22:57.283Z,0.20
2023-03-17T21:25:24.027Z,0.10
2023-03-17T21:27:50.869Z,0.10
2023-03-17T21:30:17.719Z,0.10
2023-03-17T21:32:44.429Z,0.20
2023-03-17T21:35:11.406Z,0.10
2023-03-17T21:37:38.096Z,0.10
2023-03-17T21:40:07.442Z,0.17
2023-03-17T21:42:34.467Z,0.20
2023-03-17T21:45:01.451Z,0.10
2023-03-17T21:47:29.960Z,0.10
2023-03-17T21:49:58.027Z,0.20
2023-03-17T21:52:25.489Z,0.20
2023-03-17T21:54:52.302Z,0.10
2023-03-17T21:57:19.037Z,0.17
2023-03-17T21:59:46.527Z,0.20
2023-03-17T22:02:14.219Z,0.10
2023-03-17T22:04:41.797Z,0.20
2023-03-17T22:07:09.013Z,0.10
2023-03-17T22:09:36.086Z,0.10
2023-03-17T22:12:04.331Z,0.20
2023-03-17T22:14:31.239Z,0.10
2023-03-17T22:16:58.049Z,0.20
2023-03-17T22:19:25.037Z,0.20
2023-03-17T22:21:51.810Z,0.13
2023-03-17T22:24:18.879Z,0.20
2023-03-17T22:26:46.494Z,0.10
2023-03-17T22:29:13.638Z,0.20
2023-03-17T22:31:41.933Z,0.13
2023-03-17T22:34:10.041Z,0.20
2023-03-17T22:36:37.437Z,0.20
2023-03-17T22:39:06.892Z,0.10
2023-03-17T22:41:33.797Z,0.20
2023-03-17T22:44:00.484Z,0.10
2023-03-17T22:46:27.528Z,0.20
2023-03-17T22:48:54.386Z,0.10
2023-03-17T22:51:23.901Z,0.17
2023-03-17T22:53:51.790Z,0.15
2023-03-17T22:56:19.440Z,0.10
2023-03-17T22:58:46.920Z,0.20
2023-03-17T23:01:15.140Z,0.10
2023-03-17T23:03:43.246Z,0.20
2023-03-17T23:06:11.506Z,0.10
2023-03-17T23:08:39.270Z,0.20
2023-03-17T23:11:12.336Z,0.10
2023-03-17T23:13:41.526Z,0.30
2023-03-17T23:16:09.352Z,0.10
2023-03-17T23:18:36.224Z,0.20
2023-03-17T23:21:04.304Z,0.10
2023-03-17T23:23:31.913Z,0.20
2023-03-17T23:25:58.975Z,0.10
2023-03-17T23:28:25.791Z,0.25
2023-03-17T23:30:53.040Z,0.10
2023-03-17T23:33:21.592Z,0.30
2023-03-17T23:35:50.239Z,0.13
2023-03-17T23:38:19.519Z,0.20
2023-03-17T23:40:47.803Z,0.20
2023-03-17T23:43:14.998Z,0.20
2023-03-17T23:45:42.164Z,0.20
2023-03-17T23:48:10.037Z,0.13
2023-03-17T23:50:38.873Z,0.20
2023-03-17T23:53:05.629Z,0.20
2023-03-17T23:55:32.346Z,0.20
2023-03-17T23:58:01.409Z,0.10
